Time;durP1;ratioP1;P1;durP2;ratioP2;P2;SDS_P1;SDS_P2;PMS_P1;PMS_P2;Temp;Humidity;BMP_temperature;BMP_pressure;BME280_temperature;BME280_humidity;BME280_pressure;Samples;Min_cycle;Max_cycle;Signal;HPM_P1;HPM_P2
2021/05/05 00:00:25;;;;;;;3.30;2.40;;;11.00;99.90;;;11.33;100.00;93916.00;2400965;57;26168;-62
2021/05/05 00:03:12;;;;;;;4.47;2.30;;;11.00;99.90;;;11.40;100.00;93898.00;2188181;58;26546;-62
2021/05/05 00:05:58;;;;;;;2.60;2.20;;;11.10;99.90;;;11.41;100.00;93897.00;2400397;57;26185;-62
2021/05/05 00:08:45;;;;;;;3.00;2.20;;;11.00;99.90;;;11.34;100.00;93900.00;2187923;58;26141;-61
2021/05/05 00:11:32;;;;;;;3.20;2.47;;;11.00;99.90;;;11.28;100.00;93890.00;2400608;57;27126;-61
2021/05/05 00:14:20;;;;;;;2.80;2.30;;;11.00;99.90;;;11.27;100.00;93889.00;2187970;58;26189;-61
2021/05/05 00:17:06;;;;;;;2.80;2.40;;;10.80;99.90;;;11.18;100.00;93890.00;2400979;58;26181;-61
2021/05/05 00:19:52;;;;;;;3.27;2.37;;;10.90;99.90;;;11.12;100.00;93881.00;2187807;58;26192;-61
2021/05/05 00:22:39;;;;;;;3.60;2.23;;;10.80;99.90;;;11.15;100.00;93870.00;2400803;57;26784;-62
2021/05/05 00:25:25;;;;;;;2.67;2.10;;;10.60;99.90;;;10.85;100.00;93863.00;2187933;58;26196;-61
2021/05/05 00:28:12;;;;;;;2.77;2.30;;;10.70;99.90;;;11.10;100.00;93859.00;2187839;58;26594;-61
2021/05/05 00:30:58;;;;;;;3.63;2.03;;;10.70;99.90;;;11.08;100.00;93858.00;2400854;57;26125;-62
2021/05/05 00:33:45;;;;;;;3.40;2.37;;;10.70;99.90;;;11.07;100.00;93849.00;2187881;58;26593;-62
2021/05/05 00:36:32;;;;;;;2.40;2.20;;;10.70;99.90;;;11.02;100.00;93851.00;2400601;57;27650;-62
2021/05/05 00:39:18;;;;;;;2.20;2.00;;;10.60;99.90;;;10.76;100.00;93852.00;2188005;58;26159;-62
2021/05/05 00:42:06;;;;;;;4.23;2.30;;;10.40;99.90;;;10.53;100.00;93850.00;2400588;58;27182;-61
2021/05/05 00:44:58;;;;;;;2.40;2.20;;;10.20;99.90;;;10.39;100.00;93845.00;2188160;58;26527;-62
2021/05/05 00:47:45;;;;;;;4.40;2.20;;;10.20;99.90;;;10.31;100.00;93845.00;2400769;58;26112;-62
2021/05/05 00:50:31;;;;;;;2.93;2.27;;;10.10;99.90;;;10.21;100.00;93850.00;2187778;58;26192;-62
2021/05/05 00:53:18;;;;;;;2.40;2.07;;;10.00;99.90;;;10.18;100.00;93845.00;2401302;57;26209;-62
2021/05/05 00:56:05;;;;;;;3.83;2.30;;;10.20;99.90;;;10.62;100.00;93822.00;2187660;58;26262;-62
2021/05/05 00:58:51;;;;;;;3.67;2.20;;;9.90;99.90;;;10.13;100.00;93830.00;2187981;58;26185;-61
2021/05/05 01:01:39;;;;;;;2.43;2.23;;;9.70;99.90;;;9.95;100.00;93825.00;2401082;58;26124;-62
2021/05/05 01:04:26;;;;;;;2.60;2.30;;;9.70;99.90;;;9.88;100.00;93831.00;2187523;58;26608;-62
2021/05/05 01:07:12;;;;;;;2.47;2.17;;;9.80;99.90;;;10.17;100.00;93822.00;2400777;58;26192;-62
2021/05/05 01:09:59;;;;;;;2.67;2.40;;;9.70;99.90;;;9.93;100.00;93826.00;2188094;58;26177;-61
2021/05/05 01:12:45;;;;;;;3.23;2.07;;;9.70;99.90;;;9.84;100.00;93820.00;2400463;58;26657;-62
2021/05/05 01:15:32;;;;;;;4.73;2.43;;;9.60;99.90;;;9.81;100.00;93815.00;2187999;58;26169;-62
2021/05/05 01:18:18;;;;;;;3.37;2.60;;;9.70;99.90;;;9.92;100.00;93819.00;2401369;57;26192;-61
2021/05/05 01:21:05;;;;;;;3.90;2.37;;;9.70;99.90;;;9.84;100.00;93817.00;2187565;58;26188;-61
2021/05/05 01:23:52;;;;;;;3.27;2.13;;;9.60;99.90;;;9.86;100.00;93816.00;2187920;58;26920;-61
2021/05/05 01:26:38;;;;;;;3.80;2.40;;;9.50;99.90;;;9.72;100.00;93809.00;2400647;57;26657;-62
2021/05/05 01:29:25;;;;;;;3.67;2.40;;;9.50;99.90;;;9.73;100.00;93808.00;2187726;58;26656;-62
2021/05/05 01:32:12;;;;;;;3.83;2.47;;;9.50;99.90;;;9.70;100.00;93813.00;2401001;58;26768;-61
2021/05/05 01:34:58;;;;;;;4.87;2.40;;;9.40;99.90;;;9.63;100.00;93814.00;2187656;58;26136;-62
2021/05/05 01:37:46;;;;;;;2.50;2.30;;;9.40;99.90;;;9.59;100.00;93806.00;2400751;57;26188;-62
2021/05/05 01:40:35;;;;;;;3.40;2.47;;;9.40;99.90;;;9.63;100.00;93807.00;2188218;58;26136;-61
2021/05/05 01:43:21;;;;;;;2.87;2.50;;;9.30;99.90;;;9.46;100.00;93809.00;2401273;57;26140;-62
2021/05/05 01:46:08;;;;;;;3.50;2.20;;;9.20;99.90;;;9.37;100.00;93811.00;2188051;58;26220;-62
2021/05/05 01:48:54;;;;;;;2.80;2.23;;;9.30;99.90;;;9.65;100.00;93808.00;2188136;58;26136;-61
2021/05/05 01:51:40;;;;;;;3.30;2.20;;;9.20;99.90;;;9.41;100.00;93814.00;2400522;57;26130;-61
2021/05/05 01:54:27;;;;;;;3.37;2.60;;;9.20;99.90;;;9.32;100.00;93816.00;2187921;58;26594;-62
2021/05/05 01:57:39;;;;;;;3.97;2.57;;;9.40;99.90;;;9.59;100.00;93790.00;2400706;57;26141;-62
2021/05/05 02:00:29;;;;;;;3.73;2.47;;;9.30;99.90;;;9.51;100.00;93810.00;2187853;58;26611;-62
2021/05/05 02:03:15;;;;;;;2.20;2.00;;;9.20;99.90;;;9.54;100.00;93807.00;2401175;57;26136;-61
2021/05/05 02:06:02;;;;;;;4.40;2.43;;;9.00;99.90;;;9.19;100.00;93810.00;2185806;58;26576;-61
2021/05/05 02:08:48;;;;;;;3.10;2.50;;;8.70;99.90;;;8.77;100.00;93806.00;2186532;58;26699;-61
2021/05/05 02:11:35;;;;;;;3.37;2.30;;;8.70;99.90;;;8.85;100.00;93814.00;2186392;58;26227;-61
2021/05/05 02:14:21;;;;;;;4.33;3.00;;;8.50;99.90;;;8.45;100.00;93805.00;2186616;58;26292;-61
2021/05/05 02:17:08;;;;;;;4.70;2.57;;;8.30;99.90;;;8.27;100.00;93802.00;2186796;58;26256;-62
2021/05/05 02:19:54;;;;;;;4.13;2.70;;;8.30;99.90;;;8.57;100.00;93797.00;2186523;58;26200;-61
2021/05/05 02:22:41;;;;;;;4.37;2.60;;;8.00;99.90;;;8.07;100.00;93797.00;2186279;58;26235;-61
2021/05/05 02:25:28;;;;;;;4.60;2.73;;;8.00;99.90;;;8.05;100.00;93787.00;2186616;58;26155;-61
2021/05/05 02:28:15;;;;;;;2.90;2.70;;;7.90;99.90;;;7.93;100.00;93780.00;2401158;57;26241;-61
2021/05/05 02:31:01;;;;;;;4.37;2.80;;;7.90;99.90;;;7.90;100.00;93790.00;2401022;57;26606;-62
2021/05/05 02:33:48;;;;;;;2.90;2.53;;;7.80;99.90;;;7.85;100.00;93782.00;2188056;58;26127;-62
2021/05/05 02:36:35;;;;;;;5.27;2.70;;;7.80;99.90;;;7.84;100.00;93782.00;2400637;57;26749;-62
2021/05/05 02:39:22;;;;;;;3.87;2.60;;;7.80;99.90;;;7.82;100.00;93771.00;2188199;58;26722;-62
2021/05/05 02:42:12;;;;;;;2.73;2.37;;;7.70;99.90;;;7.84;100.00;93771.00;2401026;57;26136;-62
2021/05/05 02:44:59;;;;;;;3.80;2.50;;;7.90;99.90;;;8.30;100.00;93768.00;2188228;58;26629;-63
2021/05/05 02:47:46;;;;;;;3.10;2.53;;;8.00;99.90;;;8.27;100.00;93771.00;2400760;58;26127;-61
2021/05/05 02:50:32;;;;;;;5.60;2.90;;;8.00;99.90;;;8.24;100.00;93766.00;2186332;58;26666;-61
2021/05/05 02:53:19;;;;;;;2.50;2.20;;;7.90;99.90;;;8.15;100.00;93761.00;2187122;58;26168;-61
2021/05/05 02:56:06;;;;;;;3.07;2.63;;;7.80;99.90;;;7.96;100.00;93756.00;2186877;58;26207;-61
2021/05/05 02:59:00;;;;;;;3.20;2.40;;;7.70;99.90;;;7.74;100.00;93755.00;2187790;58;25954;-60
2021/05/05 03:01:46;;;;;;;3.17;2.87;;;7.50;99.90;;;7.66;100.00;93750.00;2186861;58;26212;-61
2021/05/05 03:04:33;;;;;;;3.10;2.80;;;7.50;99.90;;;7.63;100.00;93753.00;2185926;58;26705;-62
2021/05/05 03:07:20;;;;;;;5.07;2.60;;;7.60;99.90;;;7.99;100.00;93751.00;2186689;58;26662;-62
2021/05/05 03:10:10;;;;;;;2.60;2.40;;;7.70;99.90;;;8.06;100.00;93752.00;2188068;58;26252;-62
2021/05/05 03:12:56;;;;;;;4.20;2.93;;;7.90;99.90;;;8.30;100.00;93747.00;2187534;58;26205;-61
2021/05/05 03:15:42;;;;;;;6.13;2.50;;;7.90;99.90;;;8.16;100.00;93747.00;2187836;58;26208;-62
2021/05/05 03:18:29;;;;;;;3.23;2.60;;;7.80;99.90;;;7.94;100.00;93745.00;2401218;57;26192;-61
2021/05/05 03:21:15;;;;;;;4.17;2.63;;;7.70;99.90;;;7.91;100.00;93757.00;2187339;58;26144;-61
2021/05/05 03:24:02;;;;;;;3.43;2.50;;;7.70;99.90;;;7.96;100.00;93739.00;2401007;57;26204;-61
2021/05/05 03:26:48;;;;;;;3.93;3.27;;;7.70;99.90;;;7.94;100.00;93735.00;2187539;58;26197;-61
2021/05/05 03:29:35;;;;;;;3.13;2.60;;;7.70;99.90;;;7.93;100.00;93738.00;2400761;58;26120;-62
2021/05/05 03:32:21;;;;;;;2.80;2.60;;;7.80;99.90;;;7.93;100.00;93738.00;2188407;58;26132;-62
2021/05/05 03:35:10;;;;;;;4.43;3.00;;;7.90;99.90;;;8.12;100.00;93736.00;2400677;57;26539;-62
2021/05/05 03:37:56;;;;;;;2.80;2.50;;;7.90;99.90;;;8.12;100.00;93727.00;2187731;58;26590;-62
2021/05/05 03:40:42;;;;;;;4.57;3.10;;;7.90;99.90;;;8.05;100.00;93727.00;2187732;58;26612;-62
2021/05/05 03:43:29;;;;;;;3.40;2.80;;;7.80;99.90;;;8.01;100.00;93733.00;2401006;57;26160;-62
2021/05/05 03:46:15;;;;;;;3.03;2.70;;;7.90;99.90;;;8.12;100.00;93741.00;2187805;58;26156;-62
2021/05/05 03:49:02;;;;;;;3.63;2.90;;;7.80;99.90;;;8.03;100.00;93742.00;2401082;58;26630;-62
2021/05/05 03:51:49;;;;;;;2.97;2.67;;;7.90;99.90;;;8.30;100.00;93723.00;2187761;58;26633;-62
2021/05/05 03:54:35;;;;;;;4.47;3.33;;;7.90;99.90;;;8.11;100.00;93728.00;2400841;57;26119;-61
2021/05/05 03:57:21;;;;;;;3.63;3.00;;;7.90;99.90;;;8.07;100.00;93728.00;2188268;58;26638;-62
2021/05/05 04:00:11;;;;;;;4.90;3.30;;;7.90;99.90;;;8.07;100.00;93727.00;2400952;57;26120;-61
2021/05/05 04:02:58;;;;;;;3.93;3.17;;;7.90;99.90;;;8.10;100.00;93730.00;2188216;58;26144;-62
2021/05/05 04:05:44;;;;;;;9.67;3.43;;;7.90;99.90;;;8.13;100.00;93730.00;2187689;58;26207;-62
2021/05/05 04:08:31;;;;;;;3.67;2.80;;;8.00;99.90;;;8.35;100.00;93729.00;2401237;58;26200;-62
2021/05/05 04:11:17;;;;;;;4.47;3.30;;;8.10;99.90;;;8.49;100.00;93729.00;2187443;58;26570;-61
2021/05/05 04:14:05;;;;;;;4.00;2.90;;;8.20;99.90;;;8.53;100.00;93723.00;2401189;57;26133;-61
2021/05/05 04:16:51;;;;;;;3.90;3.03;;;8.20;99.90;;;8.41;100.00;93720.00;2187785;58;26204;-62
2021/05/05 04:19:40;;;;;;;5.63;3.50;;;8.30;99.90;;;8.74;100.00;93722.00;2400451;58;26204;-62
2021/05/05 04:22:26;;;;;;;4.70;3.20;;;8.40;99.90;;;8.73;100.00;93726.00;2187821;58;26569;-61
2021/05/05 04:25:15;;;;;;;6.10;3.13;;;8.20;99.90;;;8.52;100.00;93731.00;2400323;58;26749;-62
2021/05/05 04:28:01;;;;;;;3.50;3.20;;;8.20;99.90;;;8.43;100.00;93733.00;2400689;57;26140;-62
2021/05/05 04:30:48;;;;;;;4.43;3.40;;;8.10;99.90;;;8.36;100.00;93740.00;2400877;57;26641;-62
2021/05/05 04:33:34;;;;;;;4.50;3.60;;;8.30;99.90;;;8.74;100.00;93740.00;2187881;58;26578;-62
2021/05/05 04:36:21;;;;;;;5.30;3.30;;;8.30;99.90;;;8.64;100.00;93742.00;2400182;57;26149;-62
2021/05/05 04:39:07;;;;;;;4.20;3.50;;;8.30;99.90;;;8.60;100.00;93744.00;2401297;57;26112;-62
2021/05/05 04:41:53;;;;;;;4.00;3.60;;;8.40;99.90;;;8.70;100.00;93749.00;2187749;58;26204;-60
2021/05/05 04:44:40;;;;;;;4.43;3.60;;;8.30;99.90;;;8.66;100.00;93751.00;2400587;58;26120;-63
2021/05/05 04:47:26;;;;;;;4.80;3.37;;;8.40;99.90;;;8.83;100.00;93747.00;2188065;58;26653;-62
2021/05/05 04:50:14;;;;;;;5.70;4.17;;;8.80;99.90;;;9.48;100.00;93745.00;2400621;57;26159;-62
2021/05/05 04:53:00;;;;;;;7.00;3.97;;;8.90;99.90;;;9.35;100.00;93738.00;2187645;58;26196;-63
2021/05/05 04:55:47;;;;;;;5.27;4.03;;;8.60;99.90;;;9.01;100.00;93745.00;2400998;57;26210;-62
2021/05/05 04:58:33;;;;;;;6.33;4.13;;;8.60;99.90;;;9.03;100.00;93761.00;2187886;58;26196;-62
2021/05/05 05:01:19;;;;;;;5.40;4.03;;;8.50;99.90;;;8.91;100.00;93755.00;2401064;57;26603;-62
2021/05/05 05:04:06;;;;;;;5.20;3.90;;;8.50;99.90;;;8.99;100.00;93771.00;2187994;58;26193;-61
2021/05/05 05:06:53;;;;;;;5.33;3.70;;;8.60;99.90;;;9.02;100.00;93788.00;2187551;58;26194;-61
2021/05/05 05:09:39;;;;;;;4.93;3.60;;;8.50;99.90;;;8.92;100.00;93790.00;2400805;58;26116;-61
2021/05/05 05:12:26;;;;;;;6.47;3.47;;;8.60;99.90;;;8.99;100.00;93804.00;2187984;58;26143;-62
2021/05/05 05:15:13;;;;;;;3.43;3.13;;;8.80;99.90;;;9.14;100.00;93813.00;2401170;57;26225;-61
2021/05/05 05:18:00;;;;;;;3.87;3.47;;;9.00;99.90;;;9.43;100.00;93814.00;2188115;58;26657;-61
2021/05/05 05:20:46;;;;;;;5.63;3.40;;;9.20;99.90;;;9.51;100.00;93827.00;2400459;57;26644;-59
2021/05/05 05:23:33;;;;;;;3.77;2.60;;;9.20;99.90;;;9.50;100.00;93826.00;2188140;58;26176;-59
2021/05/05 05:26:20;;;;;;;3.70;2.80;;;9.00;99.90;;;9.36;100.00;93830.00;2400457;57;26265;-59
2021/05/05 05:29:06;;;;;;;3.70;2.90;;;9.10;99.90;;;9.46;100.00;93840.00;2188266;58;26533;-59
2021/05/05 05:31:53;;;;;;;8.00;3.10;;;9.00;99.90;;;9.32;100.00;93844.00;2187985;58;26577;-59
2021/05/05 05:34:40;;;;;;;5.43;2.70;;;8.80;99.90;;;9.24;100.00;93845.00;2400625;58;26116;-59
2021/05/05 05:37:26;;;;;;;3.07;2.70;;;8.60;99.90;;;9.03;100.00;93842.00;2188168;58;26295;-59
2021/05/05 05:40:14;;;;;;;4.10;2.37;;;8.50;99.90;;;9.03;100.00;93842.00;2400752;58;26168;-59
2021/05/05 05:43:01;;;;;;;2.77;2.20;;;8.30;99.90;;;8.75;100.00;93857.00;2187826;58;26140;-60
2021/05/05 05:45:48;;;;;;;2.43;1.80;;;8.20;99.90;;;8.63;100.00;93875.00;2400920;58;26648;-59
2021/05/05 05:48:34;;;;;;;2.10;1.90;;;8.00;99.90;;;8.41;100.00;93898.00;2188141;58;26175;-59
2021/05/05 05:51:20;;;;;;;1.90;1.70;;;7.70;99.90;;;8.17;100.00;93910.00;2400557;58;26210;-59
2021/05/05 05:54:08;;;;;;;2.83;1.50;;;7.60;99.90;;;8.02;100.00;93896.00;2188337;58;26590;-59
2021/05/05 05:56:54;;;;;;;3.47;1.60;;;7.50;99.90;;;7.95;100.00;93896.00;2187772;58;26136;-59
2021/05/05 05:59:42;;;;;;;3.03;1.93;;;7.50;99.90;;;8.02;100.00;93907.00;2401077;58;26172;-59
2021/05/05 06:02:28;;;;;;;1.70;1.50;;;7.60;99.90;;;8.04;100.00;93932.00;2188252;58;26678;-60
2021/05/05 06:05:15;;;;;;;2.80;1.70;;;7.50;99.90;;;7.99;100.00;93941.00;2400594;57;26560;-59
2021/05/05 06:08:02;;;;;;;2.07;1.47;;;7.50;99.90;;;7.96;100.00;93942.00;2188169;58;26245;-59
2021/05/05 06:10:49;;;;;;;3.67;1.53;;;7.50;99.90;;;7.99;100.00;93936.00;2401038;57;26132;-59
2021/05/05 06:13:35;;;;;;;1.30;1.20;;;7.40;99.90;;;7.85;100.00;93946.00;2187911;58;26116;-58
2021/05/05 06:16:21;;;;;;;2.37;1.97;;;7.40;99.90;;;7.82;100.00;93949.00;2401156;57;26597;-59
2021/05/05 06:19:08;;;;;;;1.60;1.50;;;7.30;99.90;;;7.77;100.00;93972.00;2188063;58;26176;-59
2021/05/05 06:21:54;;;;;;;2.00;1.30;;;7.20;99.90;;;7.63;100.00;93989.00;2400628;57;26204;-59
2021/05/05 06:24:41;;;;;;;1.47;1.37;;;7.10;99.90;;;7.46;100.00;94029.00;2187915;58;26120;-58
2021/05/05 06:27:27;;;;;;;2.07;1.80;;;7.00;99.90;;;7.32;100.00;94049.00;2187253;58;26140;-59
2021/05/05 06:30:16;;;;;;;3.00;1.40;;;6.80;99.90;;;7.18;100.00;94061.00;2400427;57;26165;-59
2021/05/05 06:33:03;;;;;;;3.60;1.60;;;6.60;99.90;;;6.92;100.00;94070.00;2187571;58;26672;-59
2021/05/05 06:35:50;;;;;;;1.90;1.70;;;6.40;99.90;;;6.78;100.00;94078.00;2400228;58;25578;-59
2021/05/05 06:38:36;;;;;;;3.30;1.70;;;6.30;99.90;;;6.62;100.00;94090.00;2187800;58;26613;-59
2021/05/05 06:41:22;;;;;;;2.70;1.40;;;6.10;99.90;;;6.43;100.00;94098.00;2400749;57;26657;-59
2021/05/05 06:44:10;;;;;;;1.10;1.00;;;6.00;99.90;;;6.42;100.00;94102.00;2188271;58;26559;-59
2021/05/05 06:46:56;;;;;;;1.93;1.10;;;5.90;99.90;;;6.22;100.00;94117.00;2401058;57;26188;-59
2021/05/05 06:49:43;;;;;;;0.97;0.87;;;5.90;99.90;;;6.18;100.00;94121.00;2187716;58;26141;-59
2021/05/05 06:52:29;;;;;;;1.80;1.00;;;5.70;99.90;;;6.08;100.00;94123.00;2400656;57;26624;-59
2021/05/05 06:55:16;;;;;;;1.37;0.87;;;5.80;99.90;;;6.12;100.00;94120.00;2401305;57;26150;-60
2021/05/05 06:58:04;;;;;;;1.90;1.10;;;5.70;99.90;;;6.10;100.00;94114.00;2187954;58;26277;-59
2021/05/05 07:00:50;;;;;;;1.03;0.80;;;5.60;99.90;;;6.00;100.00;94113.00;2400463;57;26614;-59
2021/05/05 07:03:36;;;;;;;1.80;0.70;;;5.60;99.90;;;6.02;100.00;94119.00;2188123;58;26192;-59
2021/05/05 07:06:23;;;;;;;1.27;0.80;;;5.40;99.90;;;5.76;100.00;94113.00;2400709;57;26204;-59
2021/05/05 07:09:09;;;;;;;1.57;0.77;;;5.30;99.90;;;5.69;100.00;94110.00;2188341;58;26172;-59
2021/05/05 07:11:56;;;;;;;3.87;2.37;;;5.30;99.90;;;5.75;100.00;94103.00;2401033;58;26209;-60
2021/05/05 07:14:43;;;;;;;3.20;2.10;;;5.70;99.90;;;6.16;100.00;94092.00;2188271;58;26157;-60
2021/05/05 07:17:29;;;;;;;3.07;1.80;;;5.60;99.90;;;6.07;100.00;94090.00;2401388;58;26180;-59
2021/05/05 07:20:17;;;;;;;12.37;3.73;;;5.80;99.90;;;6.37;100.00;94080.00;2188006;58;26164;-59
2021/05/05 07:23:03;;;;;;;3.03;1.20;;;5.90;99.90;;;6.43;100.00;94065.00;2188457;58;26613;-59
2021/05/05 07:25:50;;;;;;;2.20;1.10;;;5.70;99.90;;;6.19;100.00;94074.00;2401128;57;26200;-59
2021/05/05 07:28:36;;;;;;;16.53;6.50;;;5.70;99.90;;;6.27;100.00;94077.00;2187864;58;26148;-60
2021/05/05 07:31:23;;;;;;;10.80;5.10;;;5.70;99.90;;;6.40;100.00;94083.00;2400901;57;26755;-62
2021/05/05 07:34:11;;;;;;;21.27;8.07;;;5.80;99.90;;;6.36;100.00;94085.00;2187293;58;26275;-61
2021/05/05 07:37:05;;;;;;;13.57;5.33;;;5.80;99.90;;;6.47;100.00;94086.00;2186710;58;26716;-61
2021/05/05 07:46:10;;;;;;;22.97;9.37;;;6.40;99.90;;;7.18;100.00;94096.00;2401325;57;26210;-59
2021/05/05 07:48:59;;;;;;;13.70;4.80;;;6.50;99.90;;;7.41;100.00;94094.00;2188401;58;26272;-60
2021/05/05 07:51:46;;;;;;;7.57;3.67;;;7.00;99.90;;;8.10;100.00;94085.00;2401036;57;26156;-58
2021/05/05 07:54:33;;;;;;;3.20;1.97;;;7.00;99.90;;;7.83;100.00;94081.00;2188410;58;26165;-58
2021/05/05 07:57:21;;;;;;;2.33;0.90;;;6.80;99.90;;;7.62;100.00;94086.00;2187902;58;26132;-58
2021/05/05 08:00:12;;;;;;;1.20;1.10;;;6.40;99.90;;;6.86;100.00;94102.00;2401389;57;26177;-58
2021/05/05 08:02:58;;;;;;;1.47;1.07;;;6.20;99.90;;;6.66;100.00;94099.00;2401411;58;26213;-58
2021/05/05 08:05:45;;;;;;;2.63;1.80;;;6.20;99.90;;;6.78;100.00;94113.00;2187400;58;26789;-58
2021/05/05 08:08:31;;;;;;;7.07;3.37;;;5.90;99.90;;;6.40;100.00;94116.00;2188223;58;26129;-59
2021/05/05 08:11:18;;;;;;;31.47;17.40;;;6.00;99.90;;;6.49;100.00;94128.00;2401164;57;26666;-58
2021/05/05 08:14:04;;;;;;;48.67;26.63;;;6.20;99.90;;;6.80;100.00;94123.00;2188165;58;26585;-58
2021/05/05 08:16:51;;;;;;;34.93;17.47;;;6.10;99.90;;;6.51;100.00;94129.00;2401353;57;26621;-58
2021/05/05 08:19:37;;;;;;;21.70;11.27;;;5.80;99.90;;;6.22;100.00;94126.00;2187959;58;26176;-58
2021/05/05 08:22:24;;;;;;;20.17;10.20;;;5.80;99.90;;;6.29;100.00;94141.00;2401037;57;26824;-58
2021/05/05 08:25:12;;;;;;;15.60;9.37;;;5.80;99.90;;;6.38;100.00;94140.00;2188449;58;26124;-59
2021/05/05 08:27:59;;;;;;;17.47;9.57;;;5.90;99.90;;;6.53;100.00;94143.00;2401242;57;26164;-60
2021/05/05 08:30:46;;;;;;;11.17;7.27;;;6.00;99.90;;;6.71;100.00;94138.00;2187915;58;26657;-58
2021/05/05 08:33:33;;;;;;;11.23;6.70;;;6.00;99.90;;;6.52;100.00;94131.00;2188060;58;26136;-59
2021/05/05 08:36:19;;;;;;;8.53;4.47;;;6.20;99.90;;;6.92;100.00;94138.00;2400180;58;26173;-58
2021/05/05 08:39:06;;;;;;;5.73;3.10;;;6.30;99.90;;;7.02;100.00;94131.00;2187899;58;26181;-59
2021/05/05 08:41:55;;;;;;;21.17;10.43;;;6.50;99.90;;;7.19;100.00;94130.00;2400672;57;26614;-58
2021/05/05 08:44:44;;;;;;;1.93;1.43;;;6.80;99.90;;;7.72;100.00;94132.00;2187765;58;26581;-58
2021/05/05 08:47:31;;;;;;;11.33;5.20;;;7.00;99.90;;;7.78;100.00;94131.00;2400583;57;26181;-59
2021/05/05 08:50:22;;;;;;;10.17;5.20;;;7.60;99.90;;;8.61;100.00;94127.00;2187063;58;26125;-58
2021/05/05 08:53:09;;;;;;;5.37;3.20;;;7.60;99.90;;;8.15;100.00;94133.00;2188206;58;26180;-60
2021/05/05 08:55:56;;;;;;;5.30;2.87;;;7.00;99.90;;;7.56;100.00;94131.00;2187506;58;26224;-59
2021/05/05 08:58:42;;;;;;;25.33;9.70;;;7.00;99.90;;;7.71;100.00;94130.00;2400866;57;26251;-58
2021/05/05 09:01:29;;;;;;;16.03;6.50;;;7.00;99.90;;;7.93;100.00;94130.00;2187927;58;26140;-59
2021/05/05 09:04:15;;;;;;;6.43;3.37;;;6.90;99.90;;;7.65;100.00;94146.00;2400351;57;26397;-58
2021/05/05 09:07:02;;;;;;;3.27;1.43;;;6.70;99.90;;;7.36;100.00;94146.00;2187656;58;26184;-58
2021/05/05 09:09:48;;;;;;;1.67;1.40;;;6.80;99.90;;;7.24;100.00;94151.00;2401081;57;26720;-59
2021/05/05 09:12:37;;;;;;;4.10;2.40;;;6.60;99.90;;;7.01;100.00;94155.00;2187904;58;26135;-59
2021/05/05 09:15:24;;;;;;;7.50;5.33;;;6.40;99.90;;;6.86;100.00;94157.00;2401258;57;26265;-58
2021/05/05 09:18:11;;;;;;;1.87;1.47;;;6.50;99.90;;;7.06;100.00;94166.00;2188377;58;26200;-58
2021/05/05 09:21:11;;;;;;;2.20;1.50;;;6.60;99.90;;;7.16;100.00;94164.00;2187724;58;26303;-59
2021/05/05 09:24:37;;;;;;;0.60;0.60;;;6.50;99.90;;;6.90;100.00;94156.00;2188177;58;26259;-59
2021/05/05 09:27:24;;;;;;;1.33;0.70;;;6.60;99.90;;;7.27;100.00;94155.00;2400959;57;26120;-59
2021/05/05 09:30:21;;;;;;;0.50;0.50;;;7.20;99.90;;;8.18;100.00;94147.00;2188112;58;26132;-58
2021/05/05 09:33:07;;;;;;;1.80;1.50;;;8.00;99.90;;;9.17;100.00;94139.00;2188450;58;26108;-60
2021/05/05 09:35:56;;;;;;;2.50;1.90;;;9.50;99.90;;;11.51;100.00;94122.00;2187442;58;26492;-61
2021/05/05 09:38:49;;;;;;;1.10;1.00;;;10.30;99.90;;;12.36;100.00;94127.00;2401001;58;26611;-59
2021/05/05 09:41:42;;;;;;;1.87;1.00;;;10.00;99.90;;;10.90;100.00;94126.00;2400626;57;26131;-58
2021/05/05 09:44:29;;;;;;;1.07;0.80;;;9.50;99.90;;;10.17;100.00;94125.00;2187784;58;26168;-58
2021/05/05 09:47:15;;;;;;;1.30;0.93;;;9.30;99.90;;;10.26;100.00;94130.00;2400718;57;26199;-58
2021/05/05 09:50:02;;;;;;;2.20;1.30;;;8.60;99.90;;;9.36;100.00;94129.00;2187986;58;26172;-58
2021/05/05 09:52:49;;;;;;;2.73;2.03;;;8.70;99.90;;;9.63;100.00;94131.00;2400235;57;26128;-58
2021/05/05 09:55:36;;;;;;;6.97;4.80;;;8.50;99.90;;;9.37;100.00;94119.00;2187312;58;26190;-58
2021/05/05 09:58:25;;;;;;;6.33;4.63;;;8.20;99.90;;;8.84;100.00;94125.00;2187918;58;26124;-58
2021/05/05 10:01:21;;;;;;;10.27;6.50;;;7.90;99.90;;;8.18;100.00;94142.00;2401149;58;26249;-58
2021/05/05 10:04:07;;;;;;;2.93;2.60;;;7.60;99.90;;;8.11;100.00;94142.00;2400784;58;26144;-58
2021/05/05 10:07:00;;;;;;;2.80;2.03;;;7.50;99.90;;;8.05;100.00;94139.00;2188236;58;26156;-58
2021/05/05 10:09:47;;;;;;;4.33;2.53;;;7.70;99.90;;;8.27;100.00;94149.00;2401147;58;26495;-61
2021/05/05 10:12:33;;;;;;;3.27;1.37;;;7.80;99.90;;;8.48;100.00;94151.00;2187819;58;26754;-60
2021/05/05 10:15:21;;;;;;;2.27;1.40;;;7.60;99.90;;;8.04;100.00;94170.00;2188267;58;26295;-58
2021/05/05 10:18:12;;;;;;;1.83;1.40;;;7.40;99.90;;;7.92;100.00;94165.00;2401571;57;26376;-59
2021/05/05 10:20:59;;;;;;;5.13;2.30;;;7.40;99.90;;;8.13;100.00;94163.00;2400759;57;26895;-58
2021/05/05 10:23:46;;;;;;;10.03;3.97;;;7.70;99.90;;;8.34;100.00;94194.00;2188358;58;26193;-59
2021/05/05 10:26:33;;;;;;;5.07;2.93;;;7.70;99.90;;;8.34;100.00;94186.00;2187942;58;26704;-61
2021/05/05 10:29:20;;;;;;;2.43;1.30;;;7.60;99.90;;;8.29;100.00;94207.00;2401077;58;26120;-59
2021/05/05 10:32:11;;;;;;;3.17;1.60;;;7.50;99.90;;;8.18;100.00;94213.00;2188404;58;26133;-59
2021/05/05 10:34:58;;;;;;;1.43;1.20;;;7.20;99.90;;;7.78;100.00;94220.00;2188258;58;26204;-59
2021/05/05 10:37:49;;;;;;;2.33;1.20;;;7.20;99.90;;;7.80;100.00;94233.00;2187844;58;26128;-59
2021/05/05 10:40:36;;;;;;;2.90;1.50;;;7.20;99.90;;;7.98;100.00;94223.00;2188192;58;26176;-58
2021/05/05 10:43:44;;;;;;;1.60;0.77;;;7.50;99.90;;;8.29;100.00;94212.00;2188501;58;26236;-59
2021/05/05 10:46:33;;;;;;;0.93;0.73;;;7.80;99.90;;;8.86;100.00;94211.00;2401200;57;26653;-59
2021/05/05 10:49:19;;;;;;;1.07;0.67;;;7.80;99.90;;;8.83;100.00;94200.00;2188025;58;26701;-58
2021/05/05 10:52:06;;;;;;;1.67;0.73;;;7.60;99.90;;;8.70;100.00;94205.00;2188153;58;26133;-59
2021/05/05 10:54:54;;;;;;;0.83;0.60;;;7.50;99.90;;;8.40;100.00;94193.00;2400876;57;26120;-59
2021/05/05 10:58:02;;;;;;;0.47;0.47;;;7.30;99.90;;;8.06;100.00;94206.00;2187712;58;26140;-59
2021/05/05 11:01:07;;;;;;;1.00;0.63;;;7.00;99.90;;;7.66;100.00;94220.00;2187865;58;26164;-61
2021/05/05 11:03:55;;;;;;;1.20;0.60;;;6.90;99.90;;;7.48;100.00;94234.00;2188552;58;26172;-58
2021/05/05 11:06:54;;;;;;;2.20;0.80;;;6.70;99.90;;;7.26;100.00;94235.00;2188041;58;26124;-59
2021/05/05 11:09:49;;;;;;;0.97;0.70;;;6.70;99.90;;;7.30;100.00;94250.00;2401250;57;26212;-60
2021/05/05 11:12:44;;;;;;;2.27;0.80;;;6.70;99.90;;;7.37;100.00;94263.00;2187910;58;26192;-58
2021/05/05 11:15:57;;;;;;;0.97;0.60;;;6.40;99.90;;;6.94;100.00;94285.00;2188472;58;26610;-59
2021/05/05 11:18:50;;;;;;;0.67;0.60;;;5.80;99.90;;;6.29;100.00;94297.00;2188523;58;26140;-59
2021/05/05 11:21:43;;;;;;;2.63;0.83;;;5.50;99.90;;;6.15;100.00;94316.00;2400813;58;26131;-59
2021/05/05 11:24:35;;;;;;;1.90;1.03;;;5.70;99.90;;;6.57;100.00;94337.00;2187928;58;26204;-61
2021/05/05 11:27:48;;;;;;;1.17;1.00;;;5.80;99.90;;;6.69;100.00;94329.00;2187826;58;26730;-59
2021/05/05 11:30:52;;;;;;;1.70;1.10;;;5.90;99.90;;;6.77;100.00;94338.00;2187431;58;26144;-59
2021/05/05 11:33:58;;;;;;;1.70;1.20;;;5.60;99.90;;;6.46;100.00;94346.00;2188245;58;26602;-59
2021/05/05 11:36:45;;;;;;;1.57;1.10;;;5.50;99.90;;;6.17;100.00;94341.00;2188014;58;26261;-59
2021/05/05 11:39:35;;;;;;;1.30;1.17;;;5.50;99.90;;;6.30;100.00;94361.00;2188017;58;26140;-58
2021/05/05 11:42:24;;;;;;;1.70;1.20;;;5.60;99.90;;;6.38;100.00;94382.00;2188160;58;26182;-59
2021/05/05 11:45:13;;;;;;;3.47;1.50;;;5.70;99.90;;;6.37;100.00;94373.00;2187312;58;27160;-59
2021/05/05 11:47:59;;;;;;;1.33;0.97;;;5.60;99.90;;;6.12;100.00;94358.00;2188085;58;26129;-58
2021/05/05 11:50:46;;;;;;;1.40;1.27;;;5.50;99.90;;;6.11;100.00;94332.00;2187352;58;26160;-59
2021/05/05 11:53:37;;;;;;;1.20;0.93;;;5.70;99.90;;;6.53;100.00;94317.00;2401500;58;26575;-59
2021/05/05 11:56:26;;;;;;;1.30;1.00;;;5.90;99.90;;;6.70;100.00;94306.00;1896017;58;19434737;-58